sensor_id;sensor_type;location;lat;lon;timestamp;P1;durP1;ratioP1;P2;durP2;ratioP2
23260;SDS011;11799;47.740;-3.390;2023-07-09T00:02:21;26.00;;;5.50;;
23260;SDS011;11799;47.740;-3.390;2023-07-09T00:04:48;16.30;;;4.88;;
23260;SDS011;11799;47.740;-3.390;2023-07-09T00:09:53;12.60;;;4.43;;
23260;SDS011;11799;47.740;-3.390;2023-07-09T00:12:20;12.40;;;4.55;;
23260;SDS011;11799;47.740;-3.390;2023-07-09T00:14:46;11.40;;;4.03;;
23260;SDS011;11799;47.740;-3.390;2023-07-09T00:17:18;15.05;;;4.63;;
23260;SDS011;11799;47.740;-3.390;2023-07-09T00:19:46;18.63;;;5.40;;
23260;SDS011;11799;47.740;-3.390;2023-07-09T00:22:15;24.63;;;5.35;;
23260;SDS011;11799;47.740;-3.390;2023-07-09T00:27:13;15.80;;;4.53;;
23260;SDS011;11799;47.740;-3.390;2023-07-09T00:29:41;30.50;;;6.65;;
23260;SDS011;11799;47.740;-3.390;2023-07-09T00:32:14;27.90;;;6.80;;
23260;SDS011;11799;47.740;-3.390;2023-07-09T00:34:44;26.30;;;7.10;;
23260;SDS011;11799;47.740;-3.390;2023-07-09T00:37:18;34.35;;;7.88;;
23260;SDS011;11799;47.740;-3.390;2023-07-09T00:39:45;24.58;;;6.53;;
23260;SDS011;11799;47.740;-3.390;2023-07-09T00:42:16;29.95;;;7.82;;
23260;SDS011;11799;47.740;-3.390;2023-07-09T00:44:44;39.55;;;8.73;;
23260;SDS011;11799;47.740;-3.390;2023-07-09T00:47:12;23.80;;;7.13;;
23260;SDS011;11799;47.740;-3.390;2023-07-09T00:49:44;28.95;;;7.85;;
23260;SDS011;11799;47.740;-3.390;2023-07-09T00:54:59;41.38;;;8.85;;
23260;SDS011;11799;47.740;-3.390;2023-07-09T00:57:29;22.85;;;6.65;;
23260;SDS011;11799;47.740;-3.390;2023-07-09T01:00:00;24.85;;;7.07;;
23260;SDS011;11799;47.740;-3.390;2023-07-09T01:02:38;19.13;;;6.25;;
23260;SDS011;11799;47.740;-3.390;2023-07-09T01:05:10;24.38;;;7.47;;
23260;SDS011;11799;47.740;-3.390;2023-07-09T01:07:39;20.13;;;6.27;;
23260;SDS011;11799;47.740;-3.390;2023-07-09T01:10:05;30.48;;;7.00;;
23260;SDS011;11799;47.740;-3.390;2023-07-09T01:12:31;14.70;;;5.85;;
23260;SDS011;11799;47.740;-3.390;2023-07-09T01:14:57;20.58;;;5.90;;
23260;SDS011;11799;47.740;-3.390;2023-07-09T01:17:26;26.40;;;6.40;;
23260;SDS011;11799;47.740;-3.390;2023-07-09T01:19:53;20.05;;;6.07;;
23260;SDS011;11799;47.740;-3.390;2023-07-09T01:22:20;17.15;;;5.70;;
23260;SDS011;11799;47.740;-3.390;2023-07-09T01:27:15;25.75;;;5.40;;
23260;SDS011;11799;47.740;-3.390;2023-07-09T01:29:42;24.48;;;5.72;;
23260;SDS011;11799;47.740;-3.390;2023-07-09T01:32:13;21.75;;;5.22;;
23260;SDS011;11799;47.740;-3.390;2023-07-09T01:34:39;14.10;;;5.30;;
23260;SDS011;11799;47.740;-3.390;2023-07-09T01:37:06;23.42;;;5.13;;
23260;SDS011;11799;47.740;-3.390;2023-07-09T01:39:31;26.67;;;5.75;;
23260;SDS011;11799;47.740;-3.390;2023-07-09T01:41:57;22.85;;;5.18;;
23260;SDS011;11799;47.740;-3.390;2023-07-09T01:44:23;17.30;;;5.03;;
23260;SDS011;11799;47.740;-3.390;2023-07-09T01:46:49;24.25;;;5.50;;
23260;SDS011;11799;47.740;-3.390;2023-07-09T01:49:15;28.95;;;6.00;;
23260;SDS011;11799;47.740;-3.390;2023-07-09T01:51:41;18.75;;;5.15;;
23260;SDS011;11799;47.740;-3.390;2023-07-09T01:54:07;22.90;;;5.68;;
23260;SDS011;11799;47.740;-3.390;2023-07-09T01:56:35;19.48;;;5.30;;
23260;SDS011;11799;47.740;-3.390;2023-07-09T01:59:04;16.02;;;4.68;;
23260;SDS011;11799;47.740;-3.390;2023-07-09T02:01:30;11.68;;;4.13;;
23260;SDS011;11799;47.740;-3.390;2023-07-09T02:04:00;18.38;;;4.90;;
23260;SDS011;11799;47.740;-3.390;2023-07-09T02:06:26;15.52;;;4.75;;
23260;SDS011;11799;47.740;-3.390;2023-07-09T02:08:57;15.02;;;4.43;;
23260;SDS011;11799;47.740;-3.390;2023-07-09T02:11:23;20.23;;;4.57;;
23260;SDS011;11799;47.740;-3.390;2023-07-09T02:13:50;13.82;;;4.00;;
23260;SDS011;11799;47.740;-3.390;2023-07-09T02:16:15;18.98;;;4.90;;
23260;SDS011;11799;47.740;-3.390;2023-07-09T02:18:41;21.70;;;4.95;;
23260;SDS011;11799;47.740;-3.390;2023-07-09T02:21:06;16.30;;;4.15;;
23260;SDS011;11799;47.740;-3.390;2023-07-09T02:23:32;14.25;;;3.90;;
23260;SDS011;11799;47.740;-3.390;2023-07-09T02:25:57;14.63;;;4.50;;
23260;SDS011;11799;47.740;-3.390;2023-07-09T02:28:23;19.20;;;4.47;;
23260;SDS011;11799;47.740;-3.390;2023-07-09T02:30:49;18.88;;;4.93;;
23260;SDS011;11799;47.740;-3.390;2023-07-09T02:33:14;21.27;;;4.68;;
23260;SDS011;11799;47.740;-3.390;2023-07-09T02:35:40;17.33;;;4.53;;
23260;SDS011;11799;47.740;-3.390;2023-07-09T02:38:05;14.07;;;3.85;;
23260;SDS011;11799;47.740;-3.390;2023-07-09T02:40:31;18.20;;;4.38;;
23260;SDS011;11799;47.740;-3.390;2023-07-09T02:42:56;16.27;;;5.03;;
23260;SDS011;11799;47.740;-3.390;2023-07-09T02:45:22;28.70;;;6.53;;
23260;SDS011;11799;47.740;-3.390;2023-07-09T02:47:48;18.88;;;4.75;;
23260;SDS011;11799;47.740;-3.390;2023-07-09T02:50:14;25.30;;;4.82;;
23260;SDS011;11799;47.740;-3.390;2023-07-09T02:52:40;20.70;;;4.93;;
23260;SDS011;11799;47.740;-3.390;2023-07-09T02:55:07;21.63;;;4.80;;
23260;SDS011;11799;47.740;-3.390;2023-07-09T02:57:33;22.67;;;5.03;;
23260;SDS011;11799;47.740;-3.390;2023-07-09T02:59:58;20.73;;;4.82;;
23260;SDS011;11799;47.740;-3.390;2023-07-09T03:02:24;25.33;;;5.13;;
23260;SDS011;11799;47.740;-3.390;2023-07-09T03:04:49;23.08;;;5.22;;
23260;SDS011;11799;47.740;-3.390;2023-07-09T03:07:15;23.52;;;4.82;;
23260;SDS011;11799;47.740;-3.390;2023-07-09T03:09:40;28.73;;;5.75;;
23260;SDS011;11799;47.740;-3.390;2023-07-09T03:12:06;21.33;;;4.97;;
23260;SDS011;11799;47.740;-3.390;2023-07-09T03:14:32;20.02;;;4.43;;
23260;SDS011;11799;47.740;-3.390;2023-07-09T03:16:58;19.75;;;4.07;;
23260;SDS011;11799;47.740;-3.390;2023-07-09T03:19:23;15.70;;;3.88;;
23260;SDS011;11799;47.740;-3.390;2023-07-09T03:21:49;12.15;;;3.45;;
23260;SDS011;11799;47.740;-3.390;2023-07-09T03:24:15;18.65;;;3.83;;
23260;SDS011;11799;47.740;-3.390;2023-07-09T03:26:44;15.00;;;3.90;;
23260;SDS011;11799;47.740;-3.390;2023-07-09T03:29:11;14.73;;;3.53;;
23260;SDS011;11799;47.740;-3.390;2023-07-09T03:31:36;14.60;;;3.80;;
23260;SDS011;11799;47.740;-3.390;2023-07-09T03:34:02;14.45;;;3.58;;
23260;SDS011;11799;47.740;-3.390;2023-07-09T03:36:28;14.02;;;3.13;;
23260;SDS011;11799;47.740;-3.390;2023-07-09T03:38:54;14.68;;;3.28;;
23260;SDS011;11799;47.740;-3.390;2023-07-09T03:41:19;11.38;;;2.90;;
23260;SDS011;11799;47.740;-3.390;2023-07-09T03:43:45;11.13;;;2.85;;
23260;SDS011;11799;47.740;-3.390;2023-07-09T03:46:11;10.73;;;2.78;;
23260;SDS011;11799;47.740;-3.390;2023-07-09T03:48:37;14.55;;;2.90;;
23260;SDS011;11799;47.740;-3.390;2023-07-09T03:51:03;12.50;;;2.97;;
23260;SDS011;11799;47.740;-3.390;2023-07-09T03:53:28;9.50;;;2.50;;
23260;SDS011;11799;47.740;-3.390;2023-07-09T03:55:55;13.02;;;2.95;;
23260;SDS011;11799;47.740;-3.390;2023-07-09T03:58:21;17.85;;;2.78;;
23260;SDS011;11799;47.740;-3.390;2023-07-09T04:00:47;10.20;;;2.63;;
23260;SDS011;11799;47.740;-3.390;2023-07-09T04:03:13;14.15;;;2.60;;
23260;SDS011;11799;47.740;-3.390;2023-07-09T04:05:38;10.85;;;2.50;;
23260;SDS011;11799;47.740;-3.390;2023-07-09T04:08:04;17.80;;;3.00;;
23260;SDS011;11799;47.740;-3.390;2023-07-09T04:10:30;11.18;;;2.67;;
23260;SDS011;11799;47.740;-3.390;2023-07-09T04:12:56;11.50;;;2.60;;
23260;SDS011;11799;47.740;-3.390;2023-07-09T04:15:22;12.73;;;2.97;;
23260;SDS011;11799;47.740;-3.390;2023-07-09T04:17:47;15.27;;;3.60;;
23260;SDS011;11799;47.740;-3.390;2023-07-09T04:20:13;7.40;;;2.25;;
23260;SDS011;11799;47.740;-3.390;2023-07-09T04:22:39;16.02;;;3.38;;
23260;SDS011;11799;47.740;-3.390;2023-07-09T04:25:05;14.10;;;2.67;;
23260;SDS011;11799;47.740;-3.390;2023-07-09T04:27:32;14.55;;;3.03;;
23260;SDS011;11799;47.740;-3.390;2023-07-09T04:29:59;10.98;;;3.00;;
23260;SDS011;11799;47.740;-3.390;2023-07-09T04:32:25;11.02;;;3.08;;
23260;SDS011;11799;47.740;-3.390;2023-07-09T04:34:50;12.65;;;2.55;;
23260;SDS011;11799;47.740;-3.390;2023-07-09T04:37:16;10.98;;;2.70;;
23260;SDS011;11799;47.740;-3.390;2023-07-09T04:39:44;7.53;;;2.70;;
23260;SDS011;11799;47.740;-3.390;2023-07-09T04:42:11;13.00;;;2.97;;
23260;SDS011;11799;47.740;-3.390;2023-07-09T04:44:38;5.22;;;2.42;;
23260;SDS011;11799;47.740;-3.390;2023-07-09T04:47:04;18.40;;;3.55;;
23260;SDS011;11799;47.740;-3.390;2023-07-09T04:49:31;7.10;;;2.53;;
23260;SDS011;11799;47.740;-3.390;2023-07-09T04:51:57;19.75;;;3.30;;
23260;SDS011;11799;47.740;-3.390;2023-07-09T04:54:24;19.92;;;3.90;;
23260;SDS011;11799;47.740;-3.390;2023-07-09T04:56:50;15.90;;;3.67;;
23260;SDS011;11799;47.740;-3.390;2023-07-09T04:59:16;17.15;;;3.50;;
23260;SDS011;11799;47.740;-3.390;2023-07-09T05:01:42;17.23;;;3.40;;
23260;SDS011;11799;47.740;-3.390;2023-07-09T05:04:07;21.17;;;3.65;;
23260;SDS011;11799;47.740;-3.390;2023-07-09T05:06:34;9.98;;;3.38;;
23260;SDS011;11799;47.740;-3.390;2023-07-09T05:09:00;18.40;;;3.80;;
23260;SDS011;11799;47.740;-3.390;2023-07-09T05:11:25;20.35;;;4.05;;
23260;SDS011;11799;47.740;-3.390;2023-07-09T05:13:51;17.10;;;3.95;;
23260;SDS011;11799;47.740;-3.390;2023-07-09T05:16:16;8.73;;;2.72;;
23260;SDS011;11799;47.740;-3.390;2023-07-09T05:18:42;14.45;;;3.13;;
23260;SDS011;11799;47.740;-3.390;2023-07-09T05:21:09;12.77;;;3.42;;
23260;SDS011;11799;47.740;-3.390;2023-07-09T05:23:35;8.00;;;2.92;;
23260;SDS011;11799;47.740;-3.390;2023-07-09T05:26:01;18.98;;;4.28;;
23260;SDS011;11799;47.740;-3.390;2023-07-09T05:28:28;13.60;;;3.55;;
23260;SDS011;11799;47.740;-3.390;2023-07-09T05:30:55;9.63;;;3.20;;
23260;SDS011;11799;47.740;-3.390;2023-07-09T05:33:20;19.00;;;3.75;;
23260;SDS011;11799;47.740;-3.390;2023-07-09T05:35:47;10.48;;;3.08;;
23260;SDS011;11799;47.740;-3.390;2023-07-09T05:38:13;12.20;;;3.20;;
23260;SDS011;11799;47.740;-3.390;2023-07-09T05:40:40;21.08;;;3.95;;
23260;SDS011;11799;47.740;-3.390;2023-07-09T05:43:06;16.33;;;3.92;;
23260;SDS011;11799;47.740;-3.390;2023-07-09T05:45:32;19.40;;;4.22;;
23260;SDS011;11799;47.740;-3.390;2023-07-09T05:47:58;13.43;;;3.78;;
23260;SDS011;11799;47.740;-3.390;2023-07-09T05:50:24;14.85;;;3.95;;
23260;SDS011;11799;47.740;-3.390;2023-07-09T05:52:50;20.75;;;3.53;;
23260;SDS011;11799;47.740;-3.390;2023-07-09T05:55:15;16.13;;;3.53;;
23260;SDS011;11799;47.740;-3.390;2023-07-09T05:57:41;12.88;;;3.60;;
23260;SDS011;11799;47.740;-3.390;2023-07-09T06:00:07;12.45;;;3.58;;
23260;SDS011;11799;47.740;-3.390;2023-07-09T06:02:40;17.52;;;4.25;;
23260;SDS011;11799;47.740;-3.390;2023-07-09T06:05:05;8.70;;;3.17;;
23260;SDS011;11799;47.740;-3.390;2023-07-09T06:07:34;12.98;;;4.00;;
23260;SDS011;11799;47.740;-3.390;2023-07-09T06:10:00;15.35;;;3.97;;
23260;SDS011;11799;47.740;-3.390;2023-07-09T06:12:25;14.73;;;4.15;;
23260;SDS011;11799;47.740;-3.390;2023-07-09T06:14:51;15.48;;;3.97;;
23260;SDS011;11799;47.740;-3.390;2023-07-09T06:17:17;9.73;;;3.38;;
23260;SDS011;11799;47.740;-3.390;2023-07-09T06:19:42;11.48;;;3.60;;
23260;SDS011;11799;47.740;-3.390;2023-07-09T06:22:08;19.30;;;3.88;;
23260;SDS011;11799;47.740;-3.390;2023-07-09T06:24:34;9.10;;;3.30;;
23260;SDS011;11799;47.740;-3.390;2023-07-09T06:26:59;8.32;;;3.78;;
23260;SDS011;11799;47.740;-3.390;2023-07-09T06:29:25;13.65;;;4.20;;
23260;SDS011;11799;47.740;-3.390;2023-07-09T06:31:50;9.48;;;3.60;;
23260;SDS011;11799;47.740;-3.390;2023-07-09T06:34:16;15.75;;;3.92;;
23260;SDS011;11799;47.740;-3.390;2023-07-09T06:36:42;11.95;;;3.42;;
23260;SDS011;11799;47.740;-3.390;2023-07-09T06:39:08;14.35;;;3.63;;
23260;SDS011;11799;47.740;-3.390;2023-07-09T06:41:34;10.27;;;3.55;;
23260;SDS011;11799;47.740;-3.390;2023-07-09T06:44:06;8.65;;;3.20;;
23260;SDS011;11799;47.740;-3.390;2023-07-09T06:46:32;17.40;;;3.72;;
23260;SDS011;11799;47.740;-3.390;2023-07-09T06:48:57;7.00;;;2.92;;
23260;SDS011;11799;47.740;-3.390;2023-07-09T06:51:23;16.27;;;4.30;;
23260;SDS011;11799;47.740;-3.390;2023-07-09T06:53:48;19.30;;;4.25;;
23260;SDS011;11799;47.740;-3.390;2023-07-09T06:56:16;18.13;;;3.47;;
23260;SDS011;11799;47.740;-3.390;2023-07-09T06:58:42;11.02;;;3.67;;
23260;SDS011;11799;47.740;-3.390;2023-07-09T07:01:08;12.57;;;3.65;;
23260;SDS011;11799;47.740;-3.390;2023-07-09T07:03:36;15.52;;;3.60;;
23260;SDS011;11799;47.740;-3.390;2023-07-09T07:06:02;17.80;;;4.20;;
23260;SDS011;11799;47.740;-3.390;2023-07-09T07:08:28;19.20;;;3.67;;
23260;SDS011;11799;47.740;-3.390;2023-07-09T07:10:57;17.10;;;3.85;;
23260;SDS011;11799;47.740;-3.390;2023-07-09T07:13:46;16.90;;;3.92;;
23260;SDS011;11799;47.740;-3.390;2023-07-09T07:16:13;16.90;;;3.55;;
23260;SDS011;11799;47.740;-3.390;2023-07-09T07:18:38;18.77;;;3.28;;
23260;SDS011;11799;47.740;-3.390;2023-07-09T07:21:04;13.60;;;3.72;;
23260;SDS011;11799;47.740;-3.390;2023-07-09T07:23:31;16.25;;;3.80;;
23260;SDS011;11799;47.740;-3.390;2023-07-09T07:25:57;14.80;;;3.50;;
23260;SDS011;11799;47.740;-3.390;2023-07-09T07:28:22;13.32;;;3.50;;
23260;SDS011;11799;47.740;-3.390;2023-07-09T07:30:57;15.75;;;3.97;;
23260;SDS011;11799;47.740;-3.390;2023-07-09T07:33:34;18.88;;;3.90;;
23260;SDS011;11799;47.740;-3.390;2023-07-09T07:36:00;20.63;;;4.07;;
23260;SDS011;11799;47.740;-3.390;2023-07-09T07:38:25;14.35;;;3.97;;
23260;SDS011;11799;47.740;-3.390;2023-07-09T07:40:51;12.70;;;3.60;;
23260;SDS011;11799;47.740;-3.390;2023-07-09T07:43:17;14.75;;;4.03;;
23260;SDS011;11799;47.740;-3.390;2023-07-09T07:45:43;14.98;;;3.28;;
23260;SDS011;11799;47.740;-3.390;2023-07-09T07:48:09;14.70;;;3.88;;
23260;SDS011;11799;47.740;-3.390;2023-07-09T07:50:35;18.05;;;3.80;;
23260;SDS011;11799;47.740;-3.390;2023-07-09T07:53:01;10.43;;;3.20;;
23260;SDS011;11799;47.740;-3.390;2023-07-09T07:55:27;11.73;;;3.47;;
23260;SDS011;11799;47.740;-3.390;2023-07-09T07:57:52;11.65;;;3.35;;
23260;SDS011;11799;47.740;-3.390;2023-07-09T08:00:18;14.70;;;3.42;;
23260;SDS011;11799;47.740;-3.390;2023-07-09T08:02:45;18.33;;;3.83;;
23260;SDS011;11799;47.740;-3.390;2023-07-09T08:05:11;11.63;;;3.50;;
23260;SDS011;11799;47.740;-3.390;2023-07-09T08:07:37;16.60;;;3.50;;
23260;SDS011;11799;47.740;-3.390;2023-07-09T08:10:02;14.38;;;3.40;;
23260;SDS011;11799;47.740;-3.390;2023-07-09T08:12:28;13.13;;;3.70;;
23260;SDS011;11799;47.740;-3.390;2023-07-09T08:14:54;13.60;;;3.95;;
23260;SDS011;11799;47.740;-3.390;2023-07-09T08:17:19;19.85;;;3.42;;
23260;SDS011;11799;47.740;-3.390;2023-07-09T08:19:46;16.00;;;3.67;;
23260;SDS011;11799;47.740;-3.390;2023-07-09T08:22:14;10.90;;;2.70;;
23260;SDS011;11799;47.740;-3.390;2023-07-09T08:24:40;11.55;;;3.38;;
23260;SDS011;11799;47.740;-3.390;2023-07-09T08:27:06;12.95;;;3.78;;
23260;SDS011;11799;47.740;-3.390;2023-07-09T08:29:32;11.98;;;3.03;;
23260;SDS011;11799;47.740;-3.390;2023-07-09T08:31:58;12.32;;;3.25;;
23260;SDS011;11799;47.740;-3.390;2023-07-09T08:34:23;12.30;;;3.28;;
23260;SDS011;11799;47.740;-3.390;2023-07-09T08:36:49;12.65;;;3.25;;
23260;SDS011;11799;47.740;-3.390;2023-07-09T08:39:14;13.15;;;3.17;;
23260;SDS011;11799;47.740;-3.390;2023-07-09T08:41:59;16.00;;;2.95;;
23260;SDS011;11799;47.740;-3.390;2023-07-09T08:47:06;13.40;;;2.83;;
23260;SDS011;11799;47.740;-3.390;2023-07-09T08:52:37;14.77;;;3.10;;
23260;SDS011;11799;47.740;-3.390;2023-07-09T08:55:16;14.75;;;3.13;;
23260;SDS011;11799;47.740;-3.390;2023-07-09T08:58:04;14.82;;;3.05;;
23260;SDS011;11799;47.740;-3.390;2023-07-09T09:00:44;15.93;;;3.17;;
23260;SDS011;11799;47.740;-3.390;2023-07-09T09:06:14;9.75;;;2.78;;
23260;SDS011;11799;47.740;-3.390;2023-07-09T09:11:10;17.08;;;3.30;;
23260;SDS011;11799;47.740;-3.390;2023-07-09T09:13:40;13.20;;;3.28;;
23260;SDS011;11799;47.740;-3.390;2023-07-09T09:16:50;15.57;;;2.88;;
23260;SDS011;11799;47.740;-3.390;2023-07-09T09:18:59;14.38;;;2.92;;
23260;SDS011;11799;47.740;-3.390;2023-07-09T09:21:35;14.15;;;3.13;;
23260;SDS011;11799;47.740;-3.390;2023-07-09T09:24:11;12.75;;;3.15;;
23260;SDS011;11799;47.740;-3.390;2023-07-09T09:26:43;16.00;;;3.15;;
23260;SDS011;11799;47.740;-3.390;2023-07-09T09:29:13;11.85;;;3.00;;
23260;SDS011;11799;47.740;-3.390;2023-07-09T09:31:40;9.52;;;2.22;;
23260;SDS011;11799;47.740;-3.390;2023-07-09T09:34:19;13.93;;;3.13;;
23260;SDS011;11799;47.740;-3.390;2023-07-09T09:36:46;11.02;;;3.00;;
23260;SDS011;11799;47.740;-3.390;2023-07-09T09:39:12;16.40;;;2.80;;
23260;SDS011;11799;47.740;-3.390;2023-07-09T09:41:38;14.25;;;3.10;;
23260;SDS011;11799;47.740;-3.390;2023-07-09T09:44:05;13.65;;;2.85;;
23260;SDS011;11799;47.740;-3.390;2023-07-09T09:46:32;14.65;;;2.97;;
23260;SDS011;11799;47.740;-3.390;2023-07-09T09:48:59;12.15;;;2.78;;
23260;SDS011;11799;47.740;-3.390;2023-07-09T09:51:26;10.30;;;2.40;;
23260;SDS011;11799;47.740;-3.390;2023-07-09T09:53:58;11.18;;;2.60;;
23260;SDS011;11799;47.740;-3.390;2023-07-09T09:56:35;14.05;;;2.60;;
23260;SDS011;11799;47.740;-3.390;2023-07-09T09:59:02;13.52;;;2.97;;
23260;SDS011;11799;47.740;-3.390;2023-07-09T10:01:31;12.50;;;2.50;;
23260;SDS011;11799;47.740;-3.390;2023-07-09T10:04:03;9.73;;;2.35;;
23260;SDS011;11799;47.740;-3.390;2023-07-09T10:06:34;10.15;;;2.60;;
23260;SDS011;11799;47.740;-3.390;2023-07-09T10:09:04;9.77;;;2.65;;
23260;SDS011;11799;47.740;-3.390;2023-07-09T10:11:46;9.48;;;2.38;;
23260;SDS011;11799;47.740;-3.390;2023-07-09T10:16:52;13.60;;;2.75;;
23260;SDS011;11799;47.740;-3.390;2023-07-09T10:19:25;16.35;;;2.85;;
23260;SDS011;11799;47.740;-3.390;2023-07-09T10:22:04;13.57;;;2.47;;
23260;SDS011;11799;47.740;-3.390;2023-07-09T10:27:14;14.65;;;2.53;;
23260;SDS011;11799;47.740;-3.390;2023-07-09T10:32:58;8.68;;;2.50;;
23260;SDS011;11799;47.740;-3.390;2023-07-09T10:36:26;13.32;;;3.17;;
23260;SDS011;11799;47.740;-3.390;2023-07-09T10:41:24;10.82;;;2.65;;
23260;SDS011;11799;47.740;-3.390;2023-07-09T10:44:04;11.32;;;2.38;;
23260;SDS011;11799;47.740;-3.390;2023-07-09T10:46:32;10.85;;;2.65;;
23260;SDS011;11799;47.740;-3.390;2023-07-09T10:49:02;8.88;;;2.30;;
23260;SDS011;11799;47.740;-3.390;2023-07-09T10:57:25;8.00;;;2.03;;
23260;SDS011;11799;47.740;-3.390;2023-07-09T10:59:55;13.65;;;2.80;;
23260;SDS011;11799;47.740;-3.390;2023-07-09T11:05:09;12.18;;;2.47;;
23260;SDS011;11799;47.740;-3.390;2023-07-09T11:07:36;10.77;;;2.95;;
23260;SDS011;11799;47.740;-3.390;2023-07-09T11:10:17;12.32;;;2.90;;
23260;SDS011;11799;47.740;-3.390;2023-07-09T11:12:54;10.57;;;2.30;;
23260;SDS011;11799;47.740;-3.390;2023-07-09T11:15:46;13.70;;;2.88;;
23260;SDS011;11799;47.740;-3.390;2023-07-09T11:18:21;16.98;;;3.03;;
23260;SDS011;11799;47.740;-3.390;2023-07-09T11:20:55;11.13;;;2.25;;
23260;SDS011;11799;47.740;-3.390;2023-07-09T11:23:45;11.05;;;2.38;;
23260;SDS011;11799;47.740;-3.390;2023-07-09T11:26:27;11.55;;;1.90;;
23260;SDS011;11799;47.740;-3.390;2023-07-09T11:36:32;14.07;;;2.60;;
23260;SDS011;11799;47.740;-3.390;2023-07-09T11:39:00;12.25;;;2.30;;
23260;SDS011;11799;47.740;-3.390;2023-07-09T11:46:36;13.00;;;2.72;;
23260;SDS011;11799;47.740;-3.390;2023-07-09T11:49:13;11.85;;;2.47;;
23260;SDS011;11799;47.740;-3.390;2023-07-09T11:51:46;8.15;;;2.72;;
23260;SDS011;11799;47.740;-3.390;2023-07-09T11:54:14;12.40;;;2.50;;
23260;SDS011;11799;47.740;-3.390;2023-07-09T11:56:40;9.15;;;2.10;;
23260;SDS011;11799;47.740;-3.390;2023-07-09T11:59:07;11.20;;;2.22;;
23260;SDS011;11799;47.740;-3.390;2023-07-09T12:01:38;10.43;;;1.67;;
23260;SDS011;11799;47.740;-3.390;2023-07-09T12:04:18;10.65;;;2.42;;
23260;SDS011;11799;47.740;-3.390;2023-07-09T12:06:46;12.95;;;2.30;;
23260;SDS011;11799;47.740;-3.390;2023-07-09T12:09:16;9.18;;;2.50;;
23260;SDS011;11799;47.740;-3.390;2023-07-09T12:11:47;7.43;;;2.00;;
23260;SDS011;11799;47.740;-3.390;2023-07-09T12:14:15;11.07;;;2.65;;
23260;SDS011;11799;47.740;-3.390;2023-07-09T12:16:44;13.18;;;2.47;;
23260;SDS011;11799;47.740;-3.390;2023-07-09T12:19:24;13.05;;;3.42;;
23260;SDS011;11799;47.740;-3.390;2023-07-09T12:21:56;14.07;;;2.78;;
23260;SDS011;11799;47.740;-3.390;2023-07-09T12:24:27;9.85;;;1.88;;
23260;SDS011;11799;47.740;-3.390;2023-07-09T12:26:57;8.75;;;1.88;;
23260;SDS011;11799;47.740;-3.390;2023-07-09T12:29:25;10.15;;;2.40;;
23260;SDS011;11799;47.740;-3.390;2023-07-09T12:31:52;9.13;;;2.10;;
23260;SDS011;11799;47.740;-3.390;2023-07-09T12:34:17;11.90;;;2.13;;
23260;SDS011;11799;47.740;-3.390;2023-07-09T12:36:49;11.07;;;2.45;;
23260;SDS011;11799;47.740;-3.390;2023-07-09T12:39:22;10.35;;;2.33;;
23260;SDS011;11799;47.740;-3.390;2023-07-09T12:41:50;9.85;;;1.98;;
23260;SDS011;11799;47.740;-3.390;2023-07-09T12:44:22;9.60;;;1.95;;
23260;SDS011;11799;47.740;-3.390;2023-07-09T12:46:49;9.52;;;1.85;;
23260;SDS011;11799;47.740;-3.390;2023-07-09T12:51:45;9.45;;;2.17;;
23260;SDS011;11799;47.740;-3.390;2023-07-09T12:54:20;8.65;;;1.80;;
23260;SDS011;11799;47.740;-3.390;2023-07-09T12:56:52;8.98;;;1.90;;
23260;SDS011;11799;47.740;-3.390;2023-07-09T12:59:20;7.97;;;2.22;;
23260;SDS011;11799;47.740;-3.390;2023-07-09T13:02:00;8.60;;;1.85;;
23260;SDS011;11799;47.740;-3.390;2023-07-09T13:04:33;12.13;;;2.10;;
23260;SDS011;11799;47.740;-3.390;2023-07-09T13:07:01;12.73;;;2.60;;
23260;SDS011;11799;47.740;-3.390;2023-07-09T13:09:28;9.88;;;2.03;;
23260;SDS011;11799;47.740;-3.390;2023-07-09T13:11:54;12.63;;;2.42;;
23260;SDS011;11799;47.740;-3.390;2023-07-09T13:14:22;10.68;;;2.15;;
23260;SDS011;11799;47.740;-3.390;2023-07-09T13:16:49;10.70;;;2.03;;
23260;SDS011;11799;47.740;-3.390;2023-07-09T13:19:15;10.57;;;2.50;;
23260;SDS011;11799;47.740;-3.390;2023-07-09T13:21:42;6.70;;;2.03;;
23260;SDS011;11799;47.740;-3.390;2023-07-09T13:24:13;7.00;;;2.17;;
23260;SDS011;11799;47.740;-3.390;2023-07-09T13:26:41;9.65;;;2.30;;
23260;SDS011;11799;47.740;-3.390;2023-07-09T13:29:16;10.50;;;2.90;;
23260;SDS011;11799;47.740;-3.390;2023-07-09T13:31:47;7.30;;;2.80;;
23260;SDS011;11799;47.740;-3.390;2023-07-09T13:34:20;8.48;;;2.20;;
23260;SDS011;11799;47.740;-3.390;2023-07-09T13:36:48;9.40;;;2.05;;
23260;SDS011;11799;47.740;-3.390;2023-07-09T13:39:14;9.55;;;1.95;;
23260;SDS011;11799;47.740;-3.390;2023-07-09T13:41:43;11.70;;;1.92;;
23260;SDS011;11799;47.740;-3.390;2023-07-09T13:46:40;10.50;;;2.00;;
23260;SDS011;11799;47.740;-3.390;2023-07-09T13:49:25;7.43;;;1.75;;
23260;SDS011;11799;47.740;-3.390;2023-07-09T13:51:53;8.00;;;1.60;;
23260;SDS011;11799;47.740;-3.390;2023-07-09T13:54:22;6.40;;;1.80;;
23260;SDS011;11799;47.740;-3.390;2023-07-09T13:56:50;6.55;;;2.35;;
23260;SDS011;11799;47.740;-3.390;2023-07-09T13:59:18;7.32;;;1.92;;
23260;SDS011;11799;47.740;-3.390;2023-07-09T14:01:46;6.90;;;2.30;;
23260;SDS011;11799;47.740;-3.390;2023-07-09T14:04:14;6.88;;;2.15;;
23260;SDS011;11799;47.740;-3.390;2023-07-09T14:06:42;6.18;;;1.60;;
23260;SDS011;11799;47.740;-3.390;2023-07-09T14:09:09;10.02;;;2.15;;
23260;SDS011;11799;47.740;-3.390;2023-07-09T14:11:36;8.18;;;1.92;;
23260;SDS011;11799;47.740;-3.390;2023-07-09T14:14:32;7.60;;;1.75;;
23260;SDS011;11799;47.740;-3.390;2023-07-09T14:16:55;9.35;;;1.85;;
23260;SDS011;11799;47.740;-3.390;2023-07-09T14:19:22;6.65;;;1.98;;
23260;SDS011;11799;47.740;-3.390;2023-07-09T14:21:49;9.48;;;2.30;;
23260;SDS011;11799;47.740;-3.390;2023-07-09T14:24:17;6.65;;;2.10;;
23260;SDS011;11799;47.740;-3.390;2023-07-09T14:26:45;8.02;;;1.67;;
23260;SDS011;11799;47.740;-3.390;2023-07-09T14:29:12;7.72;;;2.10;;
23260;SDS011;11799;47.740;-3.390;2023-07-09T14:31:39;9.55;;;1.88;;
23260;SDS011;11799;47.740;-3.390;2023-07-09T14:34:47;7.40;;;1.77;;
23260;SDS011;11799;47.740;-3.390;2023-07-09T14:36:57;6.13;;;1.73;;
23260;SDS011;11799;47.740;-3.390;2023-07-09T14:39:25;7.75;;;1.77;;
23260;SDS011;11799;47.740;-3.390;2023-07-09T14:41:52;4.97;;;1.50;;
23260;SDS011;11799;47.740;-3.390;2023-07-09T14:46:49;7.85;;;1.70;;
23260;SDS011;11799;47.740;-3.390;2023-07-09T14:49:16;8.75;;;1.83;;
23260;SDS011;11799;47.740;-3.390;2023-07-09T14:51:42;7.68;;;1.67;;
23260;SDS011;11799;47.740;-3.390;2023-07-09T14:54:10;10.20;;;2.25;;
23260;SDS011;11799;47.740;-3.390;2023-07-09T14:56:48;6.75;;;1.55;;
23260;SDS011;11799;47.740;-3.390;2023-07-09T14:59:14;7.97;;;1.83;;
23260;SDS011;11799;47.740;-3.390;2023-07-09T15:01:40;10.30;;;1.77;;
23260;SDS011;11799;47.740;-3.390;2023-07-09T15:06:53;8.70;;;1.90;;
23260;SDS011;11799;47.740;-3.390;2023-07-09T15:09:20;7.97;;;1.88;;
23260;SDS011;11799;47.740;-3.390;2023-07-09T15:11:51;7.00;;;1.77;;
23260;SDS011;11799;47.740;-3.390;2023-07-09T15:14:21;10.80;;;2.10;;
23260;SDS011;11799;47.740;-3.390;2023-07-09T15:16:47;10.48;;;2.00;;
23260;SDS011;11799;47.740;-3.390;2023-07-09T15:19:15;9.65;;;2.00;;
23260;SDS011;11799;47.740;-3.390;2023-07-09T15:21:44;13.65;;;2.17;;
23260;SDS011;11799;47.740;-3.390;2023-07-09T15:24:13;9.52;;;2.22;;
23260;SDS011;11799;47.740;-3.390;2023-07-09T15:26:59;10.88;;;2.35;;
23260;SDS011;11799;47.740;-3.390;2023-07-09T15:29:26;11.70;;;2.10;;
23260;SDS011;11799;47.740;-3.390;2023-07-09T15:31:53;9.70;;;2.47;;
23260;SDS011;11799;47.740;-3.390;2023-07-09T15:34:19;11.18;;;2.17;;
23260;SDS011;11799;47.740;-3.390;2023-07-09T15:36:46;7.05;;;1.60;;